Main page
METAR-TAF:

METAR-TAF

Airports :

Eulogio Sánchez Airport

Santiago, Chile

latitude: 33-27-23S, longitude: 070-32-48W, elevation: 646 m

Current weather observation

The report was made 1 hour and 14 minutes ago, at 12:00 UTC
Wind 2 kt from the South/Southwest
Temperature 12°C
Humidity 94%
Pressure 1017 hPa
Visibility: 1500 m
Overcast at a height of 300 ft
mist

METAR: SCTB 281200Z 20002KT 1500 BR OVC003 12/11 Q1017

Time: 09:14 (13:14 UTC)


TAF: missing

Weather observations and forecasts of more than 4000 airports (METAR and TAF reports).

The available stations are represented by yellow and red dots on the map.

Hover mouse over dot to see the name of the station.

Then click to see weather observations and forecasts.

To change the map : click on the green buttons with a black cross to zoom in, on the green button with a dash to zoom out, or on the green arrows for adjacent maps.


METAR-TAF: